Time;durP1;ratioP1;P1;durP2;ratioP2;P2;SDS_P1;SDS_P2;PMS_P1;PMS_P2;Temp;Humidity;BMP_temperature;BMP_pressure;BME280_temperature;BME280_humidity;BME280_pressure;Samples;Min_cycle;Max_cycle;Signal;HPM_P1;HPM_P2
2023/02/10 00:01:57;;;;;;;25.50;10.53;;;-1.70;99.90;;;;;;4191529;28;20996;-75
2023/02/10 00:03:59;;;;;;;23.13;9.63;;;-1.70;99.90;;;;;;4189359;28;20464;-76
2023/02/10 00:06:03;;;;;;;22.90;9.77;;;-1.10;99.90;;;;;;4192081;28;20479;-76
2023/02/10 00:08:05;;;;;;;29.30;10.23;;;-1.70;99.90;;;;;;4208045;28;20447;-76
2023/02/10 00:10:07;;;;;;;22.47;9.60;;;-1.70;99.90;;;;;;4192629;28;20566;-76
2023/02/10 00:12:11;;;;;;;25.67;10.63;;;-1.70;99.90;;;;;;4192011;28;20478;-76
2023/02/10 00:14:14;;;;;;;24.13;10.30;;;-1.70;99.90;;;;;;4189732;28;20569;-76
2023/02/10 00:16:16;;;;;;;22.37;9.87;;;-1.70;99.90;;;;;;4189985;28;20465;-76
2023/02/10 00:18:18;;;;;;;24.07;10.00;;;-2.20;99.90;;;;;;4192380;28;20440;-75
2023/02/10 00:20:20;;;;;;;23.23;9.70;;;-1.70;99.90;;;;;;4191107;28;21033;-76
2023/02/10 00:22:24;;;;;;;25.53;10.20;;;-1.70;99.90;;;;;;4192325;28;20959;-75
2023/02/10 00:24:26;;;;;;;21.30;9.67;;;-1.70;99.90;;;;;;4190135;28;20790;-76
2023/02/10 00:26:28;;;;;;;25.93;9.80;;;-1.70;99.90;;;;;;4189084;28;21028;-76
2023/02/10 00:28:30;;;;;;;23.93;9.90;;;-1.70;99.90;;;;;;4192113;28;20521;-76
2023/02/10 00:30:32;;;;;;;27.87;10.50;;;-1.70;99.90;;;;;;4191268;28;20502;-76
2023/02/10 00:32:36;;;;;;;26.03;10.37;;;-1.70;99.90;;;;;;4207050;28;20884;-75
2023/02/10 00:34:39;;;;;;;23.97;10.27;;;-1.70;99.90;;;;;;4208709;28;20573;-76
2023/02/10 00:36:41;;;;;;;23.40;9.87;;;-1.70;99.90;;;;;;4189565;28;20444;-76
2023/02/10 00:38:45;;;;;;;24.93;9.23;;;-1.60;99.90;;;;;;4189348;28;20473;-75
2023/02/10 00:40:47;;;;;;;21.17;8.57;;;-1.60;99.90;;;;;;4193494;28;20510;-76
2023/02/10 00:42:49;;;;;;;25.23;9.97;;;-1.60;99.90;;;;;;4191967;28;20459;-76
2023/02/10 00:44:54;;;;;;;22.17;9.63;;;-1.60;99.90;;;;;;4190785;28;20503;-76
2023/02/10 00:46:56;;;;;;;20.13;9.30;;;-1.50;99.90;;;;;;4190411;28;20448;-76
2023/02/10 00:48:58;;;;;;;28.73;10.67;;;-1.50;99.90;;;;;;4191031;28;20475;-76
2023/02/10 00:51:00;;;;;;;22.47;9.53;;;-1.50;99.90;;;;;;4192541;28;20991;-76
2023/02/10 00:53:02;;;;;;;22.17;10.13;;;-1.50;99.90;;;;;;4190872;28;20468;-75
2023/02/10 00:55:06;;;;;;;22.37;9.10;;;-1.20;99.90;;;;;;4188474;28;20510;-75
2023/02/10 00:57:08;;;;;;;21.60;9.53;;;-1.40;99.90;;;;;;4192468;28;20509;-76
2023/02/10 00:59:15;;;;;;;24.57;10.07;;;-1.40;99.90;;;;;;4192554;28;20963;-75
2023/02/10 01:01:17;;;;;;;26.80;10.30;;;-1.40;99.90;;;;;;4193074;28;20460;-74
2023/02/10 01:03:19;;;;;;;22.83;9.70;;;-1.40;99.90;;;;;;4192002;28;21042;-75
2023/02/10 01:05:21;;;;;;;26.37;10.07;;;-1.30;99.90;;;;;;4193541;28;20963;-76
2023/02/10 01:07:23;;;;;;;21.63;9.60;;;-1.30;99.90;;;;;;4195439;28;20455;-76
2023/02/10 01:09:25;;;;;;;26.03;9.63;;;-1.30;99.90;;;;;;4195450;28;20968;-74
2023/02/10 01:11:29;;;;;;;23.60;10.40;;;-1.20;99.90;;;;;;4195439;28;20523;-74
2023/02/10 01:13:33;;;;;;;20.20;9.03;;;-1.20;99.90;;;;;;4194252;28;20890;-74
2023/02/10 01:15:35;;;;;;;24.03;10.23;;;-1.20;99.90;;;;;;4191755;28;20880;-74
2023/02/10 01:17:37;;;;;;;26.23;10.87;;;-1.10;99.90;;;;;;4191473;28;20825;-74
2023/02/10 01:19:39;;;;;;;22.87;9.80;;;-1.10;99.90;;;;;;4193145;28;20527;-74
2023/02/10 01:21:41;;;;;;;23.77;9.23;;;-1.10;99.90;;;;;;4192757;28;20883;-74
2023/02/10 01:23:44;;;;;;;25.37;10.33;;;-1.10;99.90;;;;;;4189008;28;20537;-73
2023/02/10 01:25:46;;;;;;;24.53;10.27;;;-1.00;99.90;;;;;;4187187;28;20503;-74
2023/02/10 01:27:49;;;;;;;23.63;10.40;;;-1.10;99.90;;;;;;4196137;28;20483;-74
2023/02/10 01:29:51;;;;;;;27.20;10.47;;;-1.10;99.90;;;;;;4193292;28;20531;-74
2023/02/10 01:31:53;;;;;;;22.83;9.57;;;-1.00;99.90;;;;;;4208543;28;20491;-74
2023/02/10 01:33:55;;;;;;;25.70;9.73;;;-0.60;99.90;;;;;;4195070;28;20448;-74
2023/02/10 01:35:57;;;;;;;21.23;9.10;;;-0.70;99.90;;;;;;4195729;28;21053;-74
2023/02/10 01:38:00;;;;;;;22.20;10.00;;;-1.00;99.90;;;;;;4194744;28;20472;-74
2023/02/10 01:40:05;;;;;;;23.47;10.13;;;-1.00;99.90;;;;;;4195971;28;20521;-74
2023/02/10 01:42:07;;;;;;;29.83;10.53;;;-0.90;99.90;;;;;;4196921;28;20461;-74
2023/02/10 01:44:42;;;;;;;27.87;10.77;;;-0.90;99.90;;;;;;4195312;28;20519;-75
2023/02/10 01:46:45;;;;;;;24.53;10.73;;;-0.90;99.90;;;;;;4194287;28;20499;-74
2023/02/10 01:48:47;;;;;;;25.97;10.03;;;-0.90;99.90;;;;;;4196697;28;21165;-75
2023/02/10 01:50:52;;;;;;;21.63;10.70;;;-0.90;99.90;;;;;;4195112;28;20489;-74
2023/02/10 01:52:55;;;;;;;22.93;9.40;;;-0.80;99.90;;;;;;4196593;28;20501;-74
2023/02/10 01:55:02;;;;;;;22.93;9.80;;;-0.80;99.90;;;;;;4189623;28;20540;-74
2023/02/10 01:57:04;;;;;;;24.57;11.13;;;-0.80;99.90;;;;;;4195848;28;20499;-74
2023/02/10 01:59:07;;;;;;;25.20;10.07;;;-0.80;99.90;;;;;;4195706;28;20543;-74
2023/02/10 02:01:15;;;;;;;28.53;11.23;;;-0.80;99.90;;;;;;4195158;28;20456;-75
2023/02/10 02:03:18;;;;;;;29.70;10.07;;;-0.80;99.90;;;;;;4194023;28;21007;-74
2023/02/10 02:05:31;;;;;;;25.73;11.30;;;-0.80;99.90;;;;;;4195274;28;20495;-74
2023/02/10 02:07:37;;;;;;;21.77;10.40;;;-0.80;99.90;;;;;;4194394;28;20462;-73
2023/02/10 02:09:39;;;;;;;25.83;10.10;;;-0.70;99.90;;;;;;4194265;28;20465;-75
2023/02/10 02:11:51;;;;;;;21.57;9.83;;;-0.70;99.90;;;;;;4191483;28;20481;-75
2023/02/10 02:14:17;;;;;;;24.50;10.13;;;-0.70;99.90;;;;;;4192692;28;20464;-75
2023/02/10 02:16:30;;;;;;;30.97;10.93;;;-0.70;99.90;;;;;;4194017;28;20496;-74
2023/02/10 02:18:40;;;;;;;27.50;11.57;;;-0.70;99.90;;;;;;4194236;28;20515;-74
2023/02/10 02:21:16;;;;;;;26.90;10.80;;;-0.70;99.90;;;;;;4192287;28;20568;-74
2023/02/10 02:23:38;;;;;;;22.70;9.83;;;-0.70;99.90;;;;;;4194489;28;20488;-74
2023/02/10 02:26:09;;;;;;;25.70;10.93;;;-0.70;99.90;;;;;;4194391;28;20500;-75
2023/02/10 02:28:24;;;;;;;23.77;10.67;;;-0.60;99.90;;;;;;4194165;28;20508;-74
2023/02/10 02:30:53;;;;;;;29.93;10.53;;;-0.60;99.90;;;;;;4190899;28;20572;-74
2023/02/10 02:32:59;;;;;;;26.30;11.33;;;-0.60;99.90;;;;;;4194220;28;20461;-77
2023/02/10 02:35:05;;;;;;;29.07;11.70;;;-0.50;99.90;;;;;;4194701;28;20448;-74
2023/02/10 02:37:12;;;;;;;25.83;11.07;;;-0.60;99.90;;;;;;4196228;28;20523;-75
2023/02/10 02:39:14;;;;;;;32.57;12.33;;;-0.60;99.90;;;;;;4195516;28;20468;-74
2023/02/10 02:41:23;;;;;;;27.93;11.73;;;-0.60;99.90;;;;;;4193364;28;20504;-74
2023/02/10 02:43:25;;;;;;;29.13;11.57;;;-0.60;99.90;;;;;;4190557;28;20539;-74
2023/02/10 02:45:33;;;;;;;24.90;10.83;;;-0.50;99.90;;;;;;4192061;28;20545;-74
2023/02/10 02:47:54;;;;;;;28.40;11.27;;;-0.50;99.90;;;;;;4194754;28;20432;-74
2023/02/10 02:50:07;;;;;;;31.17;11.97;;;-0.50;99.90;;;;;;4193118;28;21068;-75
2023/02/10 02:52:12;;;;;;;29.47;11.77;;;-0.50;99.90;;;;;;4192877;28;20559;-75
2023/02/10 02:54:22;;;;;;;32.60;11.97;;;-0.50;99.90;;;;;;4186967;28;20468;-74
2023/02/10 02:56:32;;;;;;;30.97;12.93;;;-0.50;99.90;;;;;;4190072;28;20461;-73
2023/02/10 02:58:43;;;;;;;31.07;12.70;;;-0.50;99.90;;;;;;4192706;28;20453;-74
2023/02/10 03:00:48;;;;;;;28.40;12.97;;;-0.50;99.90;;;;;;4194187;28;20461;-75
2023/02/10 03:02:52;;;;;;;28.50;11.57;;;-0.50;99.90;;;;;;4194697;28;20481;-74
2023/02/10 03:04:54;;;;;;;28.50;12.37;;;-0.40;99.90;;;;;;4193243;28;20623;-75
2023/02/10 03:06:58;;;;;;;29.67;12.47;;;-0.40;99.90;;;;;;4191688;28;20548;-75
2023/02/10 03:09:00;;;;;;;31.07;12.80;;;-0.40;99.90;;;;;;4189265;28;20575;-75
2023/02/10 03:11:01;;;;;;;28.20;11.97;;;-0.40;99.90;;;;;;4193033;28;20504;-75
2023/02/10 03:13:03;;;;;;;28.67;12.47;;;-0.40;99.90;;;;;;4192503;28;20495;-75
2023/02/10 03:15:05;;;;;;;30.70;12.70;;;-0.40;99.90;;;;;;4191711;28;20815;-75
2023/02/10 03:17:07;;;;;;;26.70;11.40;;;-0.40;99.90;;;;;;4191633;28;20476;-75
2023/02/10 03:19:14;;;;;;;33.27;14.57;;;-0.30;99.90;;;;;;4190157;28;20510;-75
2023/02/10 03:21:16;;;;;;;32.93;13.20;;;-0.30;99.90;;;;;;4193730;28;20482;-74
2023/02/10 03:23:20;;;;;;;31.13;13.40;;;-0.30;99.90;;;;;;4192101;28;20538;-75
2023/02/10 03:25:21;;;;;;;32.77;13.27;;;-0.30;99.90;;;;;;4192891;28;20468;-75
2023/02/10 03:27:23;;;;;;;31.77;12.83;;;-0.40;99.90;;;;;;4191599;28;20591;-75
2023/02/10 03:29:25;;;;;;;29.30;12.60;;;-0.30;99.90;;;;;;4191361;28;20466;-77
2023/02/10 03:31:27;;;;;;;34.17;13.93;;;-0.30;99.90;;;;;;4190790;28;20453;-74
2023/02/10 03:33:30;;;;;;;33.97;13.20;;;-0.30;99.90;;;;;;4192907;28;20456;-75
2023/02/10 03:35:37;;;;;;;31.17;13.50;;;-0.30;99.90;;;;;;4193930;28;20511;-75
2023/02/10 03:37:39;;;;;;;31.00;13.03;;;-0.20;99.90;;;;;;4191615;28;20522;-75
2023/02/10 03:39:43;;;;;;;37.87;13.50;;;-0.20;99.90;;;;;;4190897;28;20501;-75
2023/02/10 03:41:45;;;;;;;30.40;13.40;;;-0.30;99.90;;;;;;4193053;28;20506;-75
2023/02/10 03:43:47;;;;;;;31.53;14.03;;;-0.30;99.90;;;;;;4191745;28;20458;-75
2023/02/10 03:45:49;;;;;;;34.27;13.50;;;-0.20;99.90;;;;;;4192590;28;20485;-75
2023/02/10 03:47:51;;;;;;;28.97;12.83;;;-0.30;99.90;;;;;;4192672;28;20460;-75
2023/02/10 03:49:53;;;;;;;29.40;12.80;;;-0.20;99.90;;;;;;4192055;28;20485;-75
2023/02/10 03:51:54;;;;;;;33.47;13.83;;;-0.30;99.90;;;;;;4189537;28;20478;-75
2023/02/10 03:53:56;;;;;;;30.57;13.30;;;-0.20;99.90;;;;;;4187775;28;20461;-74
2023/02/10 03:56:00;;;;;;;32.40;13.07;;;-0.20;99.90;;;;;;4192872;28;20857;-75
2023/02/10 03:58:02;;;;;;;32.97;13.23;;;-0.20;99.90;;;;;;4191454;28;20486;-74
2023/02/10 04:00:06;;;;;;;32.13;13.87;;;-0.20;99.90;;;;;;4192851;28;20536;-75
2023/02/10 04:02:10;;;;;;;34.03;13.57;;;-0.20;99.90;;;;;;4192623;28;20530;-75
2023/02/10 04:04:11;;;;;;;28.87;12.20;;;-0.20;99.90;;;;;;4192789;28;21150;-75
2023/02/10 04:06:13;;;;;;;31.63;13.00;;;-0.20;99.90;;;;;;4191797;28;20484;-74
2023/02/10 04:08:16;;;;;;;32.97;13.70;;;-0.20;99.90;;;;;;4190054;28;22015;-74
2023/02/10 04:10:18;;;;;;;33.10;14.23;;;-0.20;99.90;;;;;;4192927;28;20926;-75
2023/02/10 04:12:21;;;;;;;32.67;13.60;;;-0.20;99.90;;;;;;4189692;28;20854;-74
2023/02/10 04:14:23;;;;;;;35.73;13.73;;;-0.20;99.90;;;;;;4192202;28;20516;-75
2023/02/10 04:16:27;;;;;;;32.27;13.47;;;0.00;99.90;;;;;;4191880;28;20730;-75
2023/02/10 04:18:29;;;;;;;30.47;14.33;;;-0.20;99.90;;;;;;4192039;28;20446;-75
2023/02/10 04:20:31;;;;;;;35.77;13.63;;;-0.20;99.90;;;;;;4191909;28;20905;-75
2023/02/10 04:22:33;;;;;;;34.50;14.87;;;-0.30;99.90;;;;;;4189548;28;20460;-74
2023/02/10 04:24:35;;;;;;;34.47;14.30;;;-0.10;99.90;;;;;;4189896;28;20466;-75
2023/02/10 04:26:37;;;;;;;34.13;13.07;;;-0.20;99.90;;;;;;4191972;28;21371;-75
2023/02/10 04:28:40;;;;;;;34.63;13.53;;;-0.20;99.90;;;;;;4193237;28;20494;-75
2023/02/10 04:30:42;;;;;;;37.53;15.33;;;-0.20;99.90;;;;;;4190241;28;20512;-74
2023/02/10 04:32:44;;;;;;;36.07;14.90;;;-0.10;99.90;;;;;;4188898;28;20478;-75
2023/02/10 04:34:46;;;;;;;32.20;14.07;;;-0.20;99.90;;;;;;4191637;28;20455;-75
2023/02/10 04:36:48;;;;;;;33.13;14.70;;;-0.20;99.90;;;;;;4192931;28;20503;-75
2023/02/10 04:38:50;;;;;;;33.33;14.00;;;-0.20;99.90;;;;;;4193814;28;20486;-75
2023/02/10 04:40:52;;;;;;;35.13;14.87;;;-0.20;99.90;;;;;;4211222;28;21069;-75
2023/02/10 04:42:54;;;;;;;30.67;14.07;;;-0.20;99.90;;;;;;4190342;28;20471;-75
2023/02/10 04:44:58;;;;;;;33.00;13.63;;;-0.20;99.90;;;;;;4185216;28;20458;-77
2023/02/10 04:47:00;;;;;;;32.07;14.27;;;-0.10;99.90;;;;;;4193894;28;20552;-76
2023/02/10 04:49:02;;;;;;;36.73;14.87;;;-0.10;99.90;;;;;;4196798;28;20447;-77
2023/02/10 04:51:07;;;;;;;33.93;14.70;;;-0.20;99.90;;;;;;4208622;28;21164;-76
2023/02/10 04:53:10;;;;;;;35.43;15.13;;;-0.20;99.90;;;;;;4192672;28;20572;-76
2023/02/10 04:55:11;;;;;;;39.03;15.97;;;-0.20;99.90;;;;;;4192111;28;20493;-76
2023/02/10 04:57:13;;;;;;;39.10;16.30;;;0.00;99.90;;;;;;4192828;28;20458;-76
2023/02/10 04:59:15;;;;;;;35.27;15.10;;;-0.20;99.90;;;;;;4190740;28;20527;-77
2023/02/10 05:01:19;;;;;;;33.83;14.87;;;-0.20;99.90;;;;;;4189173;28;20469;-77
2023/02/10 05:03:20;;;;;;;34.67;14.67;;;-0.10;99.90;;;;;;4188832;28;20480;-77
2023/02/10 05:05:24;;;;;;;32.57;14.67;;;-0.20;99.90;;;;;;4188124;28;20974;-77
2023/02/10 05:07:26;;;;;;;37.60;15.80;;;-0.20;99.90;;;;;;4191080;28;20464;-76
2023/02/10 05:09:28;;;;;;;38.63;16.03;;;-0.20;99.90;;;;;;4190609;28;20465;-76
2023/02/10 05:11:30;;;;;;;36.50;15.90;;;-0.20;99.90;;;;;;4192234;28;20462;-77
2023/02/10 05:13:32;;;;;;;38.50;15.53;;;-0.10;99.90;;;;;;4191005;28;20523;-77
2023/02/10 05:15:34;;;;;;;37.00;15.43;;;-0.10;99.90;;;;;;4190339;28;20581;-76
2023/02/10 05:17:37;;;;;;;36.57;15.30;;;-0.10;99.90;;;;;;4192609;28;21184;-77
2023/02/10 05:19:39;;;;;;;42.73;16.87;;;-0.10;99.90;;;;;;4192450;28;20494;-76
2023/02/10 05:21:41;;;;;;;37.60;15.90;;;-0.10;99.90;;;;;;4189895;28;20463;-77
2023/02/10 05:23:43;;;;;;;35.87;17.17;;;-0.10;99.90;;;;;;4191361;28;20482;-76
2023/02/10 05:25:45;;;;;;;44.07;16.97;;;-0.10;99.90;;;;;;4190452;28;20491;-77
2023/02/10 05:27:48;;;;;;;37.93;17.27;;;-0.10;99.90;;;;;;4191476;28;20453;-76
2023/02/10 05:29:50;;;;;;;44.33;18.30;;;0.00;99.90;;;;;;4190802;28;20546;-76
2023/02/10 05:31:52;;;;;;;36.93;17.33;;;-0.10;99.90;;;;;;4189618;28;20451;-77
2023/02/10 05:33:55;;;;;;;41.97;17.23;;;-0.10;99.90;;;;;;4189405;28;20604;-76
2023/02/10 05:35:57;;;;;;;41.20;17.33;;;-0.10;99.90;;;;;;4190920;28;20441;-76
2023/02/10 05:38:01;;;;;;;38.47;16.47;;;0.00;99.90;;;;;;4190116;28;20462;-76
2023/02/10 05:40:04;;;;;;;44.07;18.43;;;-0.10;99.90;;;;;;4191290;28;20512;-76
2023/02/10 05:42:06;;;;;;;40.53;18.30;;;-0.10;99.90;;;;;;4189719;28;20465;-75
2023/02/10 05:44:08;;;;;;;42.43;17.17;;;-0.10;99.90;;;;;;4191435;28;20467;-78
2023/02/10 05:46:10;;;;;;;39.97;16.70;;;-0.10;99.90;;;;;;4191078;28;20560;-75
2023/02/10 05:48:11;;;;;;;43.87;18.00;;;-0.10;99.90;;;;;;4192581;28;20488;-76
2023/02/10 05:50:15;;;;;;;47.30;18.80;;;-0.10;99.90;;;;;;4205568;28;20472;-78
2023/02/10 05:52:17;;;;;;;41.37;17.37;;;-0.10;99.90;;;;;;4190352;28;20461;-79
2023/02/10 05:54:19;;;;;;;38.57;17.07;;;-0.10;99.90;;;;;;4187665;28;20473;-76
2023/02/10 05:56:21;;;;;;;46.47;19.60;;;-0.10;99.90;;;;;;4190564;28;20514;-78
2023/02/10 05:58:23;;;;;;;49.17;20.23;;;-0.10;99.90;;;;;;4193256;28;20507;-76
2023/02/10 06:00:25;;;;;;;48.53;19.67;;;-0.10;99.90;;;;;;4195776;28;21042;-76
2023/02/10 06:02:27;;;;;;;46.37;19.57;;;0.00;99.90;;;;;;4210266;28;21311;-76
2023/02/10 06:04:29;;;;;;;47.40;19.40;;;0.00;99.90;;;;;;4194719;28;20458;-76
2023/02/10 06:06:32;;;;;;;51.17;19.80;;;0.00;99.90;;;;;;4193911;28;20459;-76
2023/02/10 06:08:34;;;;;;;43.60;18.97;;;0.00;99.90;;;;;;4194887;28;21051;-75
2023/02/10 06:10:36;;;;;;;43.90;18.13;;;0.00;99.90;;;;;;4194167;28;20568;-76
2023/02/10 06:12:38;;;;;;;47.47;19.80;;;0.00;99.90;;;;;;4190103;28;20482;-76
2023/02/10 06:14:40;;;;;;;48.33;20.63;;;0.00;99.90;;;;;;4196062;28;20480;-76
2023/02/10 06:16:41;;;;;;;46.77;19.43;;;0.00;99.90;;;;;;4189617;28;20955;-75
2023/02/10 06:18:47;;;;;;;49.67;20.53;;;0.00;99.90;;;;;;4209298;28;20562;-76
2023/02/10 06:20:50;;;;;;;46.80;18.87;;;0.00;99.90;;;;;;4189302;28;20482;-76
2023/02/10 06:22:54;;;;;;;50.67;20.77;;;0.00;99.90;;;;;;4193950;28;20449;-76
2023/02/10 06:24:56;;;;;;;41.97;18.73;;;0.00;99.90;;;;;;4191990;28;20445;-76
2023/02/10 06:26:58;;;;;;;39.53;17.17;;;0.00;99.90;;;;;;4192240;28;20477;-76
2023/02/10 06:28:59;;;;;;;39.77;17.93;;;0.00;99.90;;;;;;4192923;28;20504;-77
2023/02/10 06:31:02;;;;;;;42.20;17.83;;;0.10;99.90;;;;;;4194595;28;20483;-76
2023/02/10 06:33:04;;;;;;;41.50;17.53;;;0.10;99.90;;;;;;4207011;28;20485;-76
2023/02/10 06:35:07;;;;;;;44.57;18.37;;;0.10;99.90;;;;;;4191022;28;20450;-76
2023/02/10 06:37:09;;;;;;;43.40;18.03;;;0.10;99.90;;;;;;4191783;28;20464;-76
2023/02/10 06:39:12;;;;;;;42.67;18.53;;;0.10;99.90;;;;;;4193303;28;21003;-77
2023/02/10 06:41:14;;;;;;;49.10;19.93;;;0.10;99.90;;;;;;4192010;28;21008;-76
2023/02/10 06:43:16;;;;;;;36.73;18.17;;;0.10;99.90;;;;;;4188533;28;20441;-77
2023/02/10 06:45:18;;;;;;;43.60;18.70;;;0.10;99.90;;;;;;4194152;28;20461;-77
2023/02/10 06:47:20;;;;;;;46.90;19.27;;;0.10;99.90;;;;;;4188099;28;20503;-76
2023/02/10 06:49:22;;;;;;;51.67;20.70;;;0.10;99.90;;;;;;4209593;28;20985;-76
2023/02/10 06:51:26;;;;;;;53.87;20.00;;;0.10;99.90;;;;;;4194179;28;20823;-76
2023/02/10 06:53:28;;;;;;;63.63;22.63;;;0.10;99.90;;;;;;4186591;28;20493;-76
2023/02/10 06:55:32;;;;;;;48.23;20.13;;;0.20;99.90;;;;;;4190302;28;20451;-77
2023/02/10 06:57:35;;;;;;;57.43;22.43;;;0.10;99.90;;;;;;4190724;28;20449;-77
2023/02/10 06:59:37;;;;;;;51.33;20.17;;;0.10;99.90;;;;;;4187336;28;20547;-76
2023/02/10 07:01:39;;;;;;;54.40;22.47;;;0.20;99.90;;;;;;4190215;28;20473;-76
2023/02/10 07:03:41;;;;;;;54.67;20.57;;;0.20;99.90;;;;;;4195214;28;20454;-76
2023/02/10 07:05:42;;;;;;;54.07;20.77;;;0.20;99.90;;;;;;4192758;28;20485;-76
2023/02/10 07:07:44;;;;;;;56.37;22.17;;;0.20;99.90;;;;;;4193286;28;20488;-76
2023/02/10 07:09:47;;;;;;;55.07;22.97;;;0.20;99.90;;;;;;4189243;28;20456;-77
2023/02/10 07:11:50;;;;;;;48.97;20.40;;;0.20;99.90;;;;;;4193857;28;20453;-76
2023/02/10 07:13:52;;;;;;;52.17;21.27;;;0.20;99.90;;;;;;4192894;28;20543;-76
2023/02/10 07:15:54;;;;;;;56.23;20.93;;;0.20;99.90;;;;;;4189848;28;20455;-77
2023/02/10 07:17:56;;;;;;;55.40;21.07;;;0.30;99.90;;;;;;4191723;28;20450;-78
2023/02/10 07:19:59;;;;;;;60.80;22.70;;;0.30;99.90;;;;;;4193495;28;20506;-76
2023/02/10 07:22:04;;;;;;;51.00;20.53;;;0.30;99.90;;;;;;4191184;28;21002;-74
2023/02/10 07:24:07;;;;;;;59.10;22.50;;;0.30;99.90;;;;;;4192225;28;20481;-77
2023/02/10 07:26:10;;;;;;;52.83;21.23;;;0.30;99.90;;;;;;4194218;28;20490;-78
2023/02/10 07:28:15;;;;;;;53.00;22.43;;;0.30;99.90;;;;;;4184724;28;20515;-76
2023/02/10 07:30:18;;;;;;;56.13;22.23;;;0.40;99.90;;;;;;4188874;28;20582;-77
2023/02/10 07:32:20;;;;;;;55.40;21.30;;;0.30;99.90;;;;;;4188300;28;20898;-77
2023/02/10 07:34:22;;;;;;;62.47;24.17;;;0.40;99.90;;;;;;4193783;28;20956;-77
2023/02/10 07:36:24;;;;;;;53.30;21.53;;;0.30;99.90;;;;;;4188553;28;20496;-77
2023/02/10 07:38:26;;;;;;;59.00;23.20;;;0.30;99.90;;;;;;4191152;28;20999;-77
2023/02/10 07:40:29;;;;;;;66.80;24.23;;;0.40;99.90;;;;;;4191891;28;20478;-77
2023/02/10 07:42:31;;;;;;;62.43;23.37;;;0.40;99.90;;;;;;4191078;28;20454;-77
2023/02/10 07:44:35;;;;;;;57.63;23.40;;;0.40;99.90;;;;;;4190395;28;20489;-77
2023/02/10 07:46:37;;;;;;;59.27;22.50;;;0.50;99.90;;;;;;4190992;28;20458;-76
2023/02/10 07:48:39;;;;;;;61.23;23.93;;;0.30;99.90;;;;;;4193780;28;20528;-77
2023/02/10 07:50:41;;;;;;;59.37;23.50;;;0.50;99.90;;;;;;4192831;28;20476;-76
2023/02/10 07:52:43;;;;;;;62.93;23.20;;;0.50;99.90;;;;;;4192161;28;20459;-77
2023/02/10 07:54:45;;;;;;;64.63;24.50;;;0.50;99.90;;;;;;4192662;28;20493;-77
2023/02/10 07:56:47;;;;;;;61.73;24.53;;;0.50;99.90;;;;;;4193291;28;21031;-77
2023/02/10 07:58:49;;;;;;;61.33;24.10;;;0.60;99.90;;;;;;4190160;28;20466;-76
2023/02/10 08:00:52;;;;;;;66.70;24.37;;;0.90;99.90;;;;;;4194310;28;20561;-79
2023/02/10 08:02:54;;;;;;;70.03;23.87;;;0.60;99.90;;;;;;4191189;28;20467;-76
2023/02/10 08:04:58;;;;;;;71.53;25.77;;;0.60;99.90;;;;;;4190502;28;21066;-77
2023/02/10 08:07:00;;;;;;;74.60;25.37;;;0.70;99.90;;;;;;4189657;28;20456;-77
2023/02/10 08:09:02;;;;;;;76.90;25.77;;;0.70;99.90;;;;;;4188871;28;20462;-77
2023/02/10 08:11:05;;;;;;;65.20;24.70;;;0.70;99.90;;;;;;4190911;28;20490;-76
2023/02/10 08:13:08;;;;;;;70.00;24.23;;;0.70;99.90;;;;;;4194041;28;20466;-77
2023/02/10 08:15:10;;;;;;;69.33;25.63;;;0.80;99.90;;;;;;4194514;28;20514;-77
2023/02/10 08:17:13;;;;;;;62.13;23.70;;;0.80;99.90;;;;;;4194596;28;20502;-77
2023/02/10 08:19:15;;;;;;;62.53;24.50;;;0.80;99.90;;;;;;4195906;28;20467;-77
2023/02/10 08:21:17;;;;;;;66.90;25.60;;;0.90;99.90;;;;;;4210405;28;20484;-77
2023/02/10 08:23:19;;;;;;;67.43;24.70;;;0.90;99.90;;;;;;4194393;28;21012;-76
2023/02/10 08:25:21;;;;;;;67.43;24.27;;;0.90;99.90;;;;;;4194234;28;20449;-78
2023/02/10 08:27:23;;;;;;;68.57;25.13;;;1.00;99.90;;;;;;4194395;28;21175;-77
2023/02/10 08:29:25;;;;;;;65.90;24.43;;;1.00;99.90;;;;;;4196568;28;20451;-77
2023/02/10 08:31:28;;;;;;;65.60;24.73;;;1.00;99.90;;;;;;4193641;28;20484;-77
2023/02/10 08:33:35;;;;;;;76.93;26.67;;;1.00;99.90;;;;;;4193664;28;20518;-78
2023/02/10 08:35:37;;;;;;;66.20;24.63;;;1.00;99.90;;;;;;4193445;28;20451;-77
2023/02/10 08:37:39;;;;;;;65.00;23.70;;;1.10;99.90;;;;;;4194586;28;21183;-77
2023/02/10 08:39:41;;;;;;;60.80;23.83;;;1.10;99.90;;;;;;4191789;28;20855;-77
2023/02/10 08:41:43;;;;;;;68.30;23.93;;;1.10;99.90;;;;;;4190196;28;20452;-77
2023/02/10 08:43:46;;;;;;;65.13;23.60;;;1.10;99.90;;;;;;4193513;28;20444;-77
2023/02/10 08:45:49;;;;;;;65.60;24.57;;;1.20;99.90;;;;;;4192932;28;21104;-77
2023/02/10 08:47:51;;;;;;;61.57;23.73;;;1.20;99.90;;;;;;4195209;28;20447;-78
2023/02/10 08:49:55;;;;;;;65.47;25.60;;;1.20;99.90;;;;;;4190678;28;20474;-78
2023/02/10 08:51:57;;;;;;;65.90;24.37;;;1.20;99.90;;;;;;4194562;28;20458;-77
2023/02/10 08:54:00;;;;;;;69.63;26.30;;;1.30;99.90;;;;;;4193286;28;20507;-78
2023/02/10 08:56:04;;;;;;;65.37;26.60;;;1.30;99.90;;;;;;4193101;28;20504;-78
2023/02/10 08:58:06;;;;;;;68.63;26.73;;;1.30;99.90;;;;;;4194242;28;20472;-77
2023/02/10 09:00:10;;;;;;;62.13;25.10;;;1.40;99.90;;;;;;4191829;28;20476;-78
2023/02/10 09:02:12;;;;;;;66.63;25.40;;;1.40;99.90;;;;;;4194989;28;20455;-77
2023/02/10 09:04:14;;;;;;;65.93;24.33;;;1.40;99.90;;;;;;4193797;28;20455;-77
2023/02/10 09:06:19;;;;;;;68.30;23.67;;;1.50;99.90;;;;;;4190675;28;20469;-77
2023/02/10 09:08:21;;;;;;;70.73;25.00;;;1.40;99.90;;;;;;4195093;28;20539;-77
2023/02/10 09:10:23;;;;;;;66.50;24.50;;;1.50;99.90;;;;;;4193619;28;20502;-77
2023/02/10 09:12:25;;;;;;;69.50;23.50;;;1.50;99.90;;;;;;4209993;28;20881;-77
2023/02/10 09:14:28;;;;;;;60.93;22.10;;;1.50;99.90;;;;;;4195653;28;20490;-76
2023/02/10 09:16:30;;;;;;;62.37;24.33;;;1.50;99.90;;;;;;4192549;28;20492;-77
2023/02/10 09:18:32;;;;;;;71.30;25.00;;;1.50;99.90;;;;;;4193926;28;20891;-77
2023/02/10 09:20:35;;;;;;;58.80;23.70;;;1.50;99.90;;;;;;4191268;28;20901;-76
2023/02/10 09:22:38;;;;;;;67.10;26.20;;;1.50;99.90;;;;;;4196323;28;21150;-77
2023/02/10 09:24:46;;;;;;;64.83;25.07;;;1.60;99.90;;;;;;4193461;28;20511;-76
2023/02/10 09:26:48;;;;;;;63.10;22.57;;;1.60;99.90;;;;;;4191557;28;20460;-76
2023/02/10 09:28:53;;;;;;;63.00;23.63;;;1.60;99.90;;;;;;4194002;28;20439;-78
2023/02/10 09:30:55;;;;;;;62.23;23.07;;;1.60;99.90;;;;;;4194626;28;20916;-76
2023/02/10 09:32:57;;;;;;;59.30;24.30;;;1.70;99.90;;;;;;4190684;28;21352;-76
2023/02/10 09:34:59;;;;;;;62.90;23.67;;;1.70;99.90;;;;;;4192624;28;20506;-77
2023/02/10 09:37:02;;;;;;;59.73;23.97;;;1.70;99.90;;;;;;4194130;28;20450;-78
2023/02/10 09:39:05;;;;;;;59.60;23.47;;;1.80;99.90;;;;;;4207500;28;21043;-76
2023/02/10 09:41:17;;;;;;;66.37;23.40;;;1.90;99.90;;;;;;4195295;28;20471;-77
2023/02/10 09:43:40;;;;;;;62.53;21.93;;;1.90;99.90;;;;;;4194166;28;21298;-78
2023/02/10 09:45:42;;;;;;;53.47;21.93;;;2.00;99.90;;;;;;4191003;28;20452;-77
2023/02/10 09:47:50;;;;;;;57.60;22.00;;;2.10;99.90;;;;;;4193716;28;20448;-77
2023/02/10 09:50:14;;;;;;;57.67;22.83;;;2.10;99.90;;;;;;4189701;28;20482;-77
2023/02/10 09:52:24;;;;;;;59.27;21.60;;;2.20;99.90;;;;;;4189965;28;20996;-76
2023/02/10 09:54:31;;;;;;;59.77;22.93;;;2.20;99.90;;;;;;4191772;28;20467;-77
2023/02/10 09:56:33;;;;;;;57.17;23.40;;;2.30;99.90;;;;;;4190751;28;20964;-76
2023/02/10 09:58:42;;;;;;;57.07;22.37;;;2.30;99.90;;;;;;4190216;28;20490;-75
2023/02/10 10:00:46;;;;;;;57.30;23.87;;;2.30;99.90;;;;;;4191568;28;20515;-76
2023/02/10 10:02:51;;;;;;;63.17;23.20;;;2.30;99.90;;;;;;4193930;28;20862;-76
2023/02/10 10:04:54;;;;;;;51.00;21.63;;;2.30;99.90;;;;;;4190685;28;20449;-77
2023/02/10 10:07:08;;;;;;;58.33;22.67;;;2.90;99.90;;;;;;4191361;28;20533;-77
2023/02/10 10:09:24;;;;;;;56.23;22.00;;;2.30;99.90;;;;;;4194451;28;20952;-77
2023/02/10 10:11:34;;;;;;;62.50;24.20;;;2.40;99.90;;;;;;4192338;28;20471;-79
2023/02/10 10:13:36;;;;;;;63.77;22.77;;;2.40;99.90;;;;;;4204063;28;20463;-76
2023/02/10 10:15:58;;;;;;;59.13;22.40;;;2.50;99.90;;;;;;4193766;28;21009;-78
2023/02/10 10:18:11;;;;;;;59.00;23.43;;;2.60;99.90;;;;;;4192858;28;20460;-77
2023/02/10 10:20:27;;;;;;;61.50;23.13;;;2.80;99.90;;;;;;4191915;28;20467;-77
2023/02/10 10:22:44;;;;;;;61.53;23.03;;;2.90;99.90;;;;;;4191679;28;20464;-76
2023/02/10 10:24:59;;;;;;;54.77;22.50;;;3.00;99.90;;;;;;4193155;28;20498;-76
2023/02/10 10:27:17;;;;;;;53.10;21.80;;;3.20;99.90;;;;;;4193701;28;20938;-77
2023/02/10 10:29:31;;;;;;;55.60;22.17;;;3.30;99.90;;;;;;4191946;28;20501;-77
2023/02/10 10:31:37;;;;;;;59.83;24.00;;;3.30;99.90;;;;;;4192044;28;20436;-79
2023/02/10 10:33:46;;;;;;;59.57;22.60;;;3.40;99.90;;;;;;4192326;28;20457;-77
2023/02/10 10:35:49;;;;;;;55.63;23.77;;;3.40;99.90;;;;;;4190370;28;20961;-77